Bismarck, North Dakota
Current Conditions -  °F | °C
As of 6:52 AM on Thursday 23 Oct 2014 (Local Time) from KBIS Reporting Station
Clear Clear  
Wind Chill: -1°   Ceiling: Unl
Heat Index: -1°   Visibility: 10mi
Dew Point: -2°   Wind: 3mph
Humidity: 89%   Direction: 130°SE
Pressure: 29.92"   Gusts: NA
Location:  46.81°N, 100.77°W
Report Text: KBIS 231152Z 13003KT 10SM CLR M01/M02 A2992 RMK AO2 SLP141 T10061022 10067 21011 58001
Loading
Personal Weather Stations






























Interactive Weather Map
Tropical Storm Tracking
New forecast layout! Learn more

10-Day Weather Forecast

Advertisements
Track Severe Weather on mobile